Time;durP1;ratioP1;P1;durP2;ratioP2;P2;SDS_P1;SDS_P2;PMS_P1;PMS_P2;Temp;Humidity;BMP_temperature;BMP_pressure;BME280_temperature;BME280_humidity;BME280_pressure;Samples;Min_cycle;Max_cycle;Signal;HPM_P1;HPM_P2
2021/10/30 00:00:09;;;;;;;6.95;5.20;;;;;;;16.22;61.00;100526.53;4984338;28;113608;-75
2021/10/30 00:02:37;;;;;;;7.10;4.60;;;;;;;16.23;60.97;100532.72;4988866;28;124129;-75
2021/10/30 00:05:07;;;;;;;8.40;4.80;;;;;;;16.24;60.96;100539.78;4988433;28;124013;-76
2021/10/30 00:07:35;;;;;;;7.05;4.72;;;;;;;16.25;60.81;100530.78;4989345;28;115240;-75
2021/10/30 00:10:03;;;;;;;8.60;4.97;;;;;;;16.26;60.98;100532.50;4982422;28;113655;-78
2021/10/30 00:12:31;;;;;;;9.38;4.88;;;;;;;16.27;61.11;100526.16;4978768;28;123746;-75
2021/10/30 00:14:59;;;;;;;7.88;4.95;;;;;;;16.29;61.09;100521.56;4982238;28;123066;-75
2021/10/30 00:17:26;;;;;;;8.73;4.63;;;;;;;16.32;61.13;100516.00;4982485;28;115462;-76
2021/10/30 00:19:53;;;;;;;7.40;4.53;;;;;;;16.32;61.03;100519.50;4975570;28;115415;-76
2021/10/30 00:22:20;;;;;;;5.30;3.95;;;;;;;16.35;61.18;100526.47;4965730;28;123455;-75
2021/10/30 00:24:47;;;;;;;6.60;4.30;;;;;;;16.38;60.99;100518.19;4983719;28;124607;-75
2021/10/30 00:27:14;;;;;;;6.25;4.63;;;;;;;16.41;61.18;100509.97;4980093;28;114043;-75
2021/10/30 00:29:42;;;;;;;6.43;4.65;;;;;;;16.44;61.12;100509.72;4988445;28;112874;-76
2021/10/30 00:32:09;;;;;;;5.97;4.10;;;;;;;16.46;61.00;100494.44;4989398;28;125155;-75
2021/10/30 00:34:36;;;;;;;7.45;4.63;;;;;;;16.48;61.00;100495.19;4987672;28;123954;-75
2021/10/30 00:37:03;;;;;;;6.90;4.43;;;;;;;16.51;60.89;100489.56;4988597;28;113248;-75
2021/10/30 00:39:31;;;;;;;6.15;3.90;;;;;;;16.53;60.96;100487.63;4985023;28;113676;-75
2021/10/30 00:41:58;;;;;;;5.93;4.30;;;;;;;16.54;60.99;100494.69;4982900;28;126752;-75
2021/10/30 00:44:25;;;;;;;6.68;4.47;;;;;;;16.58;60.87;100489.13;4982587;28;125005;-75
2021/10/30 00:46:53;;;;;;;6.10;4.10;;;;;;;16.59;61.04;100480.13;4979113;28;114554;-75
2021/10/30 00:49:21;;;;;;;5.63;3.90;;;;;;;16.60;60.83;100481.84;4983228;28;114684;-75
2021/10/30 00:51:52;;;;;;;8.27;4.45;;;;;;;16.62;60.87;100482.56;4975310;28;123069;-76
2021/10/30 00:54:20;;;;;;;7.25;4.40;;;;;;;16.63;60.86;100486.94;4982774;28;125144;-76
2021/10/30 00:56:49;;;;;;;5.70;3.95;;;;;;;16.62;60.75;100485.25;4986952;28;113535;-75
2021/10/30 00:59:18;;;;;;;6.05;4.38;;;;;;;16.61;60.75;100478.19;4989421;28;114046;-76
2021/10/30 01:01:48;;;;;;;5.88;3.90;;;;;;;16.60;60.78;100479.16;4981796;28;124607;-76
2021/10/30 01:04:17;;;;;;;6.40;4.10;;;;;;;16.59;60.62;100480.13;4978954;28;123771;-75
2021/10/30 01:06:48;;;;;;;6.10;4.10;;;;;;;16.54;60.51;100472.47;4984503;28;114138;-75
2021/10/30 01:09:18;;;;;;;5.97;4.15;;;;;;;16.50;60.42;100471.84;4978533;28;115788;-76
2021/10/30 01:11:45;;;;;;;5.78;3.97;;;;;;;16.49;60.48;100475.47;4982387;28;123772;-76
2021/10/30 01:14:13;;;;;;;6.03;4.10;;;;;;;16.46;60.50;100480.19;4978089;28;124034;-75
2021/10/30 01:16:40;;;;;;;6.20;3.67;;;;;;;16.43;60.49;100483.13;4977257;28;113808;-76
2021/10/30 01:19:08;;;;;;;6.13;4.20;;;;;;;16.40;60.41;100481.50;4984776;28;113568;-76
2021/10/30 01:21:36;;;;;;;5.70;4.20;;;;;;;16.36;60.34;100469.34;4986284;28;123411;-76
2021/10/30 01:24:06;;;;;;;6.40;3.85;;;;;;;16.35;60.53;100465.00;4985394;28;123739;-76
2021/10/30 01:26:34;;;;;;;5.93;4.35;;;;;;;16.33;60.43;100469.56;4987685;28;113727;-76
2021/10/30 01:29:02;;;;;;;5.25;3.95;;;;;;;16.29;60.63;100460.97;4978657;28;113969;-76
2021/10/30 01:31:30;;;;;;;5.45;4.10;;;;;;;16.28;60.41;100466.41;4983180;28;123238;-76
2021/10/30 01:34:02;;;;;;;6.25;4.30;;;;;;;16.25;60.62;100456.78;4983606;28;123142;-76
2021/10/30 01:36:31;;;;;;;6.03;3.97;;;;;;;16.23;60.70;100468.56;4976784;28;114538;-77
2021/10/30 01:38:59;;;;;;;6.60;4.60;;;;;;;16.20;60.58;100453.63;4981524;28;113728;-76
2021/10/30 01:41:27;;;;;;;6.47;4.10;;;;;;;16.18;60.74;100449.34;4978196;28;124647;-76
2021/10/30 01:43:55;;;;;;;7.60;4.07;;;;;;;16.17;60.72;100453.00;4985265;28;122967;-76
2021/10/30 01:46:24;;;;;;;6.60;4.22;;;;;;;16.14;60.79;100454.94;4967154;28;113215;-73
2021/10/30 01:48:52;;;;;;;6.53;4.30;;;;;;;16.12;60.65;100456.88;4977199;28;114113;-73
2021/10/30 01:51:22;;;;;;;5.35;4.10;;;;;;;16.12;60.69;100454.22;4979463;28;123148;-73
2021/10/30 01:53:49;;;;;;;6.68;4.30;;;;;;;16.08;60.86;100439.34;4978602;28;123712;-73
2021/10/30 01:56:17;;;;;;;6.80;4.32;;;;;;;16.08;60.86;100433.16;4966334;28;114863;-73
2021/10/30 01:58:45;;;;;;;7.25;4.63;;;;;;;16.07;60.75;100432.31;4985071;28;114684;-73
2021/10/30 02:01:12;;;;;;;6.28;4.75;;;;;;;16.06;60.76;100435.09;4988100;28;123655;-73
2021/10/30 02:03:40;;;;;;;7.13;4.60;;;;;;;16.04;60.78;100427.19;4968385;28;122082;-73
2021/10/30 02:06:08;;;;;;;7.72;4.85;;;;;;;16.01;60.71;100435.47;4984846;28;114497;-73
2021/10/30 02:08:35;;;;;;;6.22;4.22;;;;;;;15.99;60.85;100431.19;4987529;28;113857;-74
2021/10/30 02:11:03;;;;;;;6.65;4.95;;;;;;;15.95;61.00;100417.19;4987414;28;124083;-73
2021/10/30 02:13:31;;;;;;;8.27;4.90;;;;;;;15.94;61.15;100420.84;4987378;28;124446;-73
2021/10/30 02:15:58;;;;;;;6.03;4.07;;;;;;;15.94;61.02;100415.50;4975855;28;113388;-73
2021/10/30 02:18:25;;;;;;;6.20;4.50;;;;;;;15.93;61.08;100392.41;4982288;28;113976;-73
2021/10/30 02:20:52;;;;;;;6.25;4.20;;;;;;;15.93;61.24;100389.75;4983982;28;124259;-73
2021/10/30 02:23:19;;;;;;;6.65;4.20;;;;;;;15.92;61.21;100390.75;4988113;28;126223;-73
2021/10/30 02:25:46;;;;;;;6.50;4.18;;;;;;;15.92;61.30;100393.41;4988016;28;114143;-73
2021/10/30 02:28:14;;;;;;;5.57;3.70;;;;;;;15.92;61.58;100380.06;4989224;28;113597;-73
2021/10/30 02:30:41;;;;;;;6.38;3.88;;;;;;;15.93;61.60;100376.41;4973560;28;123534;-73
2021/10/30 02:33:09;;;;;;;9.00;3.97;;;;;;;15.93;61.46;100365.72;4987599;28;123775;-74
2021/10/30 02:35:36;;;;;;;14.30;4.38;;;;;;;15.94;61.52;100362.09;4986995;28;114900;-75
2021/10/30 02:38:04;;;;;;;7.35;4.10;;;;;;;15.95;61.62;100366.44;4981245;28;114658;-76
2021/10/30 02:40:31;;;;;;;6.18;4.03;;;;;;;15.97;61.35;100361.84;4981079;28;124162;-75
2021/10/30 02:42:58;;;;;;;5.82;4.07;;;;;;;15.97;61.50;100361.84;4989973;28;123818;-75
2021/10/30 02:45:26;;;;;;;6.15;4.32;;;;;;;15.99;61.61;100359.91;4977932;28;116423;-76
2021/10/30 02:47:53;;;;;;;6.28;4.60;;;;;;;15.99;61.40;100354.56;4991323;28;114619;-76
2021/10/30 02:50:21;;;;;;;6.78;4.10;;;;;;;16.01;61.63;100352.66;4986535;28;124967;-76
2021/10/30 02:52:48;;;;;;;6.43;4.13;;;;;;;16.01;61.62;100343.75;4981180;28;124393;-75
2021/10/30 02:55:15;;;;;;;8.57;4.18;;;;;;;16.01;61.73;100347.31;4990995;28;114933;-76
2021/10/30 02:57:48;;;;;;;6.53;4.50;;;;;;;16.00;61.69;100353.59;4984227;28;113560;-76
2021/10/30 03:00:16;;;;;;;5.80;4.38;;;;;;;16.01;61.58;100358.00;4984918;28;124395;-76
2021/10/30 03:02:43;;;;;;;7.50;4.53;;;;;;;16.00;61.66;100345.59;4981169;28;123838;-75
2021/10/30 03:05:12;;;;;;;7.90;4.65;;;;;;;16.00;61.68;100334.91;4988700;28;114094;-76
2021/10/30 03:07:39;;;;;;;6.47;4.65;;;;;;;16.01;61.55;100335.75;4985156;28;113773;-75
2021/10/30 03:10:07;;;;;;;7.70;5.22;;;;;;;16.01;61.73;100336.63;4981336;28;123741;-75
2021/10/30 03:12:34;;;;;;;7.85;4.85;;;;;;;16.01;61.62;100323.28;4990244;28;123632;-75
2021/10/30 03:15:05;;;;;;;8.15;4.50;;;;;;;16.01;61.55;100323.28;4986152;28;113945;-75
2021/10/30 03:17:32;;;;;;;9.18;4.97;;;;;;;16.00;61.65;100302.84;4977374;28;113966;-75
2021/10/30 03:19:59;;;;;;;7.20;4.20;;;;;;;16.01;61.56;100304.56;4984650;28;123849;-75
2021/10/30 03:22:26;;;;;;;7.97;4.10;;;;;;;16.02;61.58;100300.91;4986971;28;123915;-76
2021/10/30 03:24:55;;;;;;;9.48;4.30;;;;;;;16.02;61.31;100308.94;5006632;22;113475;-61
2021/10/30 03:27:22;;;;;;;7.38;4.57;;;;;;;16.01;61.52;100304.56;4980804;28;113896;-61
2021/10/30 03:29:51;;;;;;;6.25;4.38;;;;;;;16.02;61.37;100302.75;4987040;28;124204;-60
2021/10/30 03:32:19;;;;;;;7.85;4.78;;;;;;;16.02;61.47;100300.06;4985249;28;123866;-61
2021/10/30 03:34:46;;;;;;;5.93;4.43;;;;;;;16.01;61.51;100298.34;4970821;28;114569;-61
2021/10/30 03:37:13;;;;;;;9.40;4.90;;;;;;;16.01;61.40;100309.91;4988508;28;114815;-60
2021/10/30 03:39:40;;;;;;;9.00;5.50;;;;;;;16.01;61.56;100304.56;4981284;28;124382;-61
2021/10/30 03:42:08;;;;;;;8.40;5.10;;;;;;;16.01;61.38;100296.56;4991361;28;124129;-61
2021/10/30 03:44:35;;;;;;;7.32;4.68;;;;;;;16.01;61.53;100291.22;4988051;28;113654;-60
2021/10/30 03:47:03;;;;;;;8.20;5.10;;;;;;;16.02;61.40;100284.03;4986779;28;113148;-61
2021/10/30 03:49:30;;;;;;;8.18;4.97;;;;;;;16.01;61.45;100277.88;4983319;28;124127;-61
2021/10/30 03:51:57;;;;;;;8.73;5.47;;;;;;;16.03;61.35;100283.06;4986742;28;124161;-62
2021/10/30 03:54:25;;;;;;;8.55;4.90;;;;;;;16.03;61.25;100275.03;4982186;28;115023;-62
2021/10/30 03:56:53;;;;;;;7.57;4.78;;;;;;;16.03;61.28;100278.59;4985386;28;113055;-62
2021/10/30 03:59:21;;;;;;;8.23;4.90;;;;;;;16.02;61.26;100274.22;4976087;28;124323;-62
2021/10/30 04:01:48;;;;;;;11.10;5.38;;;;;;;16.02;61.16;100273.38;4980255;28;123622;-62
2021/10/30 04:04:15;;;;;;;8.93;5.30;;;;;;;16.00;61.10;100276.16;4988517;28;114396;-62
2021/10/30 04:06:43;;;;;;;9.63;5.20;;;;;;;15.98;61.06;100272.75;4984228;28;113977;-62
2021/10/30 04:09:11;;;;;;;9.40;5.43;;;;;;;15.98;60.94;100278.09;4989053;28;124784;-62
2021/10/30 04:11:38;;;;;;;8.50;5.20;;;;;;;15.95;60.76;100267.63;4985706;28;123809;-62
2021/10/30 04:14:05;;;;;;;8.90;5.10;;;;;;;15.93;60.86;100265.06;4981985;28;113921;-62
2021/10/30 04:16:34;;;;;;;8.70;5.68;;;;;;;15.91;60.65;100260.81;4984389;28;114716;-62
2021/10/30 04:19:03;;;;;;;8.50;5.32;;;;;;;15.88;60.61;100261.03;4986468;28;123060;-62
2021/10/30 04:21:31;;;;;;;8.57;5.45;;;;;;;15.87;60.66;100264.69;4985330;28;123974;-62
2021/10/30 04:23:58;;;;;;;8.68;5.63;;;;;;;15.84;60.34;100262.25;4982796;28;115223;-62
2021/10/30 04:26:26;;;;;;;10.30;5.40;;;;;;;15.83;60.63;100263.25;4983820;28;115208;-62
2021/10/30 04:28:55;;;;;;;9.55;5.35;;;;;;;15.81;60.60;100259.84;4982955;28;124702;-62
2021/10/30 04:31:24;;;;;;;8.88;5.57;;;;;;;15.80;60.49;100252.78;4989081;28;122868;-62
2021/10/30 04:33:54;;;;;;;10.93;5.32;;;;;;;15.77;60.57;100254.72;4994847;28;114361;-62
2021/10/30 04:36:25;;;;;;;7.10;4.85;;;;;;;15.77;60.60;100254.72;4979497;28;116227;-62
2021/10/30 04:38:52;;;;;;;8.23;5.38;;;;;;;15.76;60.37;100258.38;4982894;28;124160;-62
2021/10/30 04:41:20;;;;;;;8.82;5.35;;;;;;;15.73;60.51;100258.59;4981390;28;123873;-62
2021/10/30 04:43:48;;;;;;;9.95;5.60;;;;;;;15.71;60.46;100255.16;4986540;28;114603;-62
2021/10/30 04:46:18;;;;;;;9.05;5.13;;;;;;;15.71;60.72;100259.66;4984641;28;113848;-62
2021/10/30 04:48:46;;;;;;;9.50;5.35;;;;;;;15.69;60.25;100257.09;4999737;28;123260;-62
2021/10/30 04:51:13;;;;;;;7.28;5.20;;;;;;;15.66;60.34;100257.31;4988893;28;122780;-62
2021/10/30 04:53:42;;;;;;;9.90;5.78;;;;;;;15.64;60.40;100248.59;4980551;28;114170;-62
2021/10/30 04:56:11;;;;;;;9.68;5.57;;;;;;;15.62;60.65;100239.84;4981847;28;113546;-62
2021/10/30 04:58:44;;;;;;;11.15;5.45;;;;;;;15.62;60.56;100239.84;4985521;28;124608;-62
2021/10/30 05:01:13;;;;;;;8.90;5.30;;;;;;;15.61;60.40;100242.63;4986618;28;123675;-62
2021/10/30 05:03:42;;;;;;;9.25;5.32;;;;;;;15.61;60.54;100243.47;4985872;28;114183;-62
2021/10/30 05:06:11;;;;;;;8.27;5.40;;;;;;;15.60;60.41;100240.94;4986321;28;113905;-62
2021/10/30 05:08:38;;;;;;;8.95;5.00;;;;;;;15.58;60.51;100233.03;4987024;28;124453;-62
2021/10/30 05:11:07;;;;;;;8.05;4.93;;;;;;;15.56;60.50;100229.66;4983438;28;123794;-62
2021/10/30 05:13:35;;;;;;;8.40;5.07;;;;;;;15.56;60.64;100224.31;4990120;28;114741;-61
2021/10/30 05:16:03;;;;;;;7.70;4.88;;;;;;;15.55;60.49;100222.59;4981642;28;117029;-62
2021/10/30 05:18:30;;;;;;;9.55;5.30;;;;;;;15.53;60.60;100219.19;4980212;28;123918;-62
2021/10/30 05:20:58;;;;;;;9.18;4.60;;;;;;;15.52;60.52;100217.47;4982479;28;124595;-62
2021/10/30 05:23:26;;;;;;;9.32;4.47;;;;;;;15.51;60.60;100210.44;4987889;28;113130;-62
2021/10/30 05:25:53;;;;;;;9.05;4.72;;;;;;;15.49;60.68;100207.03;4982610;28;112995;-62
2021/10/30 05:28:21;;;;;;;8.82;4.63;;;;;;;15.47;60.72;100203.66;4984076;28;124707;-61
2021/10/30 05:30:49;;;;;;;8.15;4.93;;;;;;;15.46;60.80;100196.59;4987739;28;123814;-62
2021/10/30 05:33:17;;;;;;;10.25;5.30;;;;;;;15.45;60.78;100194.91;4968928;28;113500;-62
2021/10/30 05:36:04;;;;;;;8.93;5.00;;;;;;;15.43;60.89;100188.84;4988616;28;116000;-62
2021/10/30 05:38:50;;;;;;;10.63;5.40;;;;;;;15.41;60.84;100177.41;4973125;28;123505;-62
2021/10/30 05:41:18;;;;;;;9.05;4.32;;;;;;;15.41;60.79;100166.72;4984733;28;123870;-62
2021/10/30 05:43:46;;;;;;;9.45;4.97;;;;;;;15.38;60.76;100158.00;4990563;28;114235;-62
2021/10/30 05:46:14;;;;;;;8.15;5.00;;;;;;;15.37;60.80;100158.13;4986402;28;113071;-62
2021/10/30 05:48:41;;;;;;;8.93;5.10;;;;;;;15.36;61.09;100165.28;4990744;28;123662;-62
2021/10/30 05:51:12;;;;;;;9.70;5.07;;;;;;;15.35;61.08;100152.91;4986264;28;124840;-61
2021/10/30 05:53:41;;;;;;;10.35;5.90;;;;;;;15.35;61.16;100157.38;4989479;28;113891;-62
2021/10/30 05:56:08;;;;;;;8.80;5.28;;;;;;;15.34;61.02;100167.19;4984303;28;114295;-63
2021/10/30 05:58:36;;;;;;;8.55;5.30;;;;;;;15.32;61.08;100161.13;4988613;28;124900;-62
2021/10/30 06:01:03;;;;;;;9.18;5.18;;;;;;;15.30;60.98;100165.75;4983455;28;125475;-62
2021/10/30 06:03:31;;;;;;;9.88;5.63;;;;;;;15.28;61.23;100162.34;4983856;28;115246;-62
2021/10/30 06:05:59;;;;;;;8.73;5.47;;;;;;;15.26;61.21;100166.94;4992968;28;115289;-62
2021/10/30 06:08:26;;;;;;;10.60;5.13;;;;;;;15.23;61.40;100164.50;4988017;28;124342;-62
2021/10/30 06:10:53;;;;;;;9.07;5.70;;;;;;;15.24;61.52;100160.88;4989422;28;123874;-62
2021/10/30 06:13:22;;;;;;;10.30;5.22;;;;;;;15.24;61.50;100160.88;4992700;28;114349;-62
2021/10/30 06:15:50;;;;;;;8.50;5.10;;;;;;;15.24;61.61;100163.53;4989051;28;112821;-62
2021/10/30 06:18:17;;;;;;;11.30;5.85;;;;;;;15.24;61.63;100163.53;4988336;28;124499;-62
2021/10/30 06:20:45;;;;;;;8.73;5.78;;;;;;;15.24;61.50;100158.22;4990232;28;124871;-62
2021/10/30 06:23:13;;;;;;;11.60;5.80;;;;;;;15.23;61.65;100164.50;4983353;28;114435;-63
2021/10/30 06:25:42;;;;;;;10.00;5.43;;;;;;;15.22;61.63;100162.81;4988868;28;114007;-63
2021/10/30 06:28:11;;;;;;;10.32;5.30;;;;;;;15.21;61.74;100171.78;4988397;28;124844;-63
2021/10/30 06:30:39;;;;;;;9.70;5.78;;;;;;;15.20;61.69;100164.75;4987753;28;124250;-63
2021/10/30 06:33:08;;;;;;;9.40;5.55;;;;;;;15.19;61.83;100165.69;4983336;28;114839;-63
2021/10/30 06:35:36;;;;;;;10.32;5.63;;;;;;;15.21;62.00;100161.09;4990297;28;114097;-63
2021/10/30 06:38:03;;;;;;;9.65;5.47;;;;;;;15.21;61.86;100171.78;4986597;28;123797;-63
2021/10/30 06:40:30;;;;;;;10.90;5.90;;;;;;;15.21;61.92;100162.94;4988855;28;123805;-65
2021/10/30 06:42:57;;;;;;;10.30;5.65;;;;;;;15.21;61.98;100158.44;4971116;28;113142;-63
2021/10/30 06:45:25;;;;;;;8.35;4.75;;;;;;;15.19;61.90;100144.34;4990764;28;114147;-63
2021/10/30 06:47:52;;;;;;;10.27;5.53;;;;;;;15.19;62.21;100142.53;4987762;28;124039;-63
2021/10/30 06:50:20;;;;;;;8.85;5.38;;;;;;;15.21;61.99;100144.25;4990032;28;124550;-62
2021/10/30 06:52:52;;;;;;;12.00;5.57;;;;;;;15.19;61.92;100152.38;4992036;28;115214;-63
2021/10/30 06:55:20;;;;;;;9.70;5.35;;;;;;;15.18;62.09;100146.19;4987892;28;115303;-62
2021/10/30 06:57:49;;;;;;;10.07;5.22;;;;;;;15.19;62.27;100153.22;4986705;28;123842;-63
2021/10/30 07:00:17;;;;;;;9.23;5.47;;;;;;;15.22;62.26;100146.81;4989724;28;124255;-63
2021/10/30 07:02:46;;;;;;;8.55;4.97;;;;;;;15.24;62.26;100147.53;4987702;28;114903;-62
2021/10/30 07:05:14;;;;;;;8.35;5.25;;;;;;;15.24;62.21;100144.88;4989207;28;113826;-62
2021/10/30 07:07:41;;;;;;;8.98;4.93;;;;;;;15.25;62.19;100141.22;4983567;28;124796;-62
2021/10/30 07:10:09;;;;;;;9.13;4.95;;;;;;;15.27;62.29;100144.63;4982109;28;124788;-62
2021/10/30 07:12:38;;;;;;;9.80;5.13;;;;;;;15.28;62.29;100141.00;4990632;28;114110;-62
2021/10/30 07:15:07;;;;;;;9.07;4.88;;;;;;;15.28;62.31;100135.66;4988568;28;112879;-62
2021/10/30 07:17:35;;;;;;;10.77;5.38;;;;;;;15.28;62.30;100135.66;4978417;28;124130;-62
2021/10/30 07:20:03;;;;;;;8.65;4.80;;;;;;;15.30;62.42;100135.56;4980107;28;123767;-62
2021/10/30 07:22:46;;;;;;;9.93;4.95;;;;;;;15.31;62.42;100122.09;4978110;28;114517;-62
2021/10/30 07:25:16;;;;;;;11.07;5.30;;;;;;;15.33;62.36;100128.16;4981878;28;113910;-62
2021/10/30 07:27:43;;;;;;;8.85;5.20;;;;;;;15.35;62.31;100131.56;4985241;28;122948;-62
2021/10/30 07:30:11;;;;;;;11.00;5.32;;;;;;;15.36;62.52;100122.56;4979278;28;123937;-62
2021/10/30 07:32:39;;;;;;;7.55;4.97;;;;;;;15.38;62.41;100123.31;4984424;28;113872;-62
2021/10/30 07:35:07;;;;;;;7.47;4.60;;;;;;;15.39;62.40;100121.50;4987912;28;114012;-62
2021/10/30 07:37:35;;;;;;;6.68;4.35;;;;;;;15.42;62.59;100120.41;4980320;28;123921;-62
2021/10/30 07:40:05;;;;;;;8.90;4.78;;;;;;;15.42;62.40;100121.25;4974904;28;124342;-62
2021/10/30 07:42:34;;;;;;;8.00;4.78;;;;;;;15.44;62.44;100113.13;4980163;28;115527;-61
2021/10/30 07:45:21;;;;;;;10.15;4.57;;;;;;;15.43;62.59;100117.63;4984702;28;114966;-61
2021/10/30 07:48:18;;;;;;;8.10;4.32;;;;;;;15.45;62.34;100114.84;5038474;22;123584;-65
2021/10/30 07:50:46;;;;;;;6.18;4.43;;;;;;;15.46;62.55;100111.19;5021889;27;124630;-65
2021/10/30 07:53:14;;;;;;;8.57;4.70;;;;;;;15.48;62.52;100115.47;5026269;27;113179;-67
2021/10/30 07:55:41;;;;;;;6.10;4.38;;;;;;;15.49;62.49;100110.97;5030062;27;113927;-67
2021/10/30 07:58:08;;;;;;;8.98;4.50;;;;;;;15.51;62.49;100106.38;5022580;27;123678;-64
2021/10/30 08:00:36;;;;;;;6.57;4.10;;;;;;;15.53;62.55;100113.28;5020778;27;123808;-66
2021/10/30 08:03:03;;;;;;;7.43;4.13;;;;;;;15.55;62.56;100115.81;5019385;27;114170;-66
2021/10/30 08:05:31;;;;;;;7.40;4.63;;;;;;;15.57;62.57;100108.53;5020207;27;113829;-66
2021/10/30 08:07:58;;;;;;;8.77;4.68;;;;;;;15.58;62.37;100108.44;5029256;27;124022;-66
2021/10/30 08:10:27;;;;;;;6.78;4.65;;;;;;;15.61;62.63;100104.66;5019975;27;127060;-66
2021/10/30 08:12:55;;;;;;;7.85;4.53;;;;;;;15.63;62.45;100096.53;5020660;27;114197;-66
2021/10/30 08:15:23;;;;;;;6.25;4.03;;;;;;;15.64;62.53;100093.75;5027864;27;113590;-66
2021/10/30 08:17:55;;;;;;;6.75;4.38;;;;;;;15.67;62.62;100100.66;5022795;27;124005;-66
2021/10/30 08:20:23;;;;;;;6.95;3.70;;;;;;;15.70;62.62;100098.59;5021989;27;123957;-66
2021/10/30 08:22:50;;;;;;;8.50;3.92;;;;;;;15.72;62.51;100095.81;5027882;27;114225;-66
2021/10/30 08:25:17;;;;;;;4.65;3.17;;;;;;;15.73;62.47;100093.06;5027867;27;114294;-66
2021/10/30 08:27:44;;;;;;;6.97;4.15;;;;;;;15.75;62.50;100091.13;5025383;27;123932;-66
2021/10/30 08:30:12;;;;;;;5.53;3.80;;;;;;;15.76;62.50;100076.81;5022683;27;123792;-66
2021/10/30 08:32:40;;;;;;;6.22;3.92;;;;;;;15.80;62.55;100082.75;5022884;27;115452;-67
2021/10/30 08:35:07;;;;;;;5.70;4.30;;;;;;;15.82;62.64;100079.94;5014080;27;115220;-66
2021/10/30 08:37:38;;;;;;;6.72;4.07;;;;;;;15.86;62.46;100084.06;5024393;27;122793;-66
2021/10/30 08:40:14;;;;;;;6.72;4.47;;;;;;;15.88;62.69;100084.78;5013961;27;124364;-66
2021/10/30 08:43:01;;;;;;;6.85;3.97;;;;;;;15.90;62.34;100082.88;5014712;27;114356;-65
2021/10/30 08:45:32;;;;;;;6.28;4.38;;;;;;;15.91;62.65;100079.22;5013462;27;114225;-65
2021/10/30 08:48:01;;;;;;;6.28;3.55;;;;;;;15.94;62.48;100073.66;5019753;27;125051;-66
2021/10/30 08:50:28;;;;;;;6.78;3.90;;;;;;;15.98;62.47;100072.44;5024592;27;123770;-66
2021/10/30 08:52:56;;;;;;;5.53;3.72;;;;;;;16.02;62.53;100065.03;5002179;28;113257;-66
2021/10/30 08:55:23;;;;;;;7.82;3.83;;;;;;;16.04;62.51;100063.06;5023271;27;113929;-66
2021/10/30 08:57:53;;;;;;;5.55;3.42;;;;;;;16.07;62.44;100063.69;5026505;27;98477;-66
2021/10/30 09:00:25;;;;;;;5.63;3.47;;;;;;;16.11;62.44;100070.47;5020060;27;124044;-66
2021/10/30 09:02:55;;;;;;;5.85;3.63;;;;;;;16.14;62.65;100064.88;5014386;28;114584;-66
2021/10/30 09:05:23;;;;;;;5.25;3.38;;;;;;;16.19;62.31;100066.34;5012571;27;113769;-66
2021/10/30 09:07:58;;;;;;;5.57;3.15;;;;;;;16.22;62.49;100060.72;5028376;28;123770;-66
2021/10/30 09:10:30;;;;;;;5.13;3.42;;;;;;;16.25;62.50;100065.81;5015135;28;124221;-65
2021/10/30 09:12:59;;;;;;;7.07;3.50;;;;;;;16.28;62.38;100065.59;5024494;28;114125;-65
2021/10/30 09:15:36;;;;;;;6.00;3.97;;;;;;;16.33;62.32;100063.38;5021574;28;113844;-65
2021/10/30 09:18:21;;;;;;;5.78;3.67;;;;;;;16.35;62.36;100072.13;5022089;28;124137;-65
2021/10/30 09:20:53;;;;;;;5.90;3.70;;;;;;;16.37;62.37;100072.84;5015782;28;125060;-65
2021/10/30 09:23:20;;;;;;;6.72;3.42;;;;;;;16.40;62.37;100064.56;5020150;28;114587;-66
2021/10/30 09:26:00;;;;;;;5.88;3.40;;;;;;;16.42;62.26;100067.97;5020169;27;115287;-67
2021/10/30 09:28:33;;;;;;;4.28;3.08;;;;;;;16.44;62.43;100066.00;5019518;28;124590;-68
2021/10/30 09:31:03;;;;;;;5.95;3.42;;;;;;;16.47;62.35;100064.91;5022783;28;124087;-68
2021/10/30 09:33:48;;;;;;;6.10;3.60;;;;;;;16.47;61.82;100065.75;5027648;27;113412;-69
2021/10/30 09:36:15;;;;;;;6.80;3.30;;;;;;;16.49;62.23;100069.16;5020337;28;114317;-69
2021/10/30 09:38:45;;;;;;;4.65;3.42;;;;;;;16.50;62.17;100070.88;5021595;28;124765;-69
2021/10/30 09:41:20;;;;;;;3.95;2.80;;;;;;;16.51;62.25;100072.56;5022121;28;124144;-69
2021/10/30 09:44:03;;;;;;;4.93;2.93;;;;;;;16.52;62.23;100063.56;5023907;28;114624;-69
2021/10/30 09:46:33;;;;;;;6.38;3.30;;;;;;;16.52;62.33;100063.56;5026331;27;113452;-69
2021/10/30 09:49:15;;;;;;;6.25;2.90;;;;;;;16.54;62.22;100055.44;5025014;28;123921;-69
2021/10/30 09:51:48;;;;;;;4.55;2.85;;;;;;;16.54;62.21;100072.31;5021118;28;124765;-69
2021/10/30 09:54:35;;;;;;;4.90;2.42;;;;;;;16.57;62.12;100059.66;5019246;28;114648;-69
2021/10/30 09:57:03;;;;;;;5.07;2.70;;;;;;;16.57;62.30;100059.66;5015963;28;113730;-69
2021/10/30 09:59:39;;;;;;;5.28;3.00;;;;;;;16.59;62.50;100057.72;5014012;28;124082;-69
2021/10/30 10:02:08;;;;;;;5.45;3.00;;;;;;;16.61;62.49;100055.75;5017907;28;124633;-69
2021/10/30 10:04:38;;;;;;;4.00;2.88;;;;;;;16.63;62.41;100060.00;5019871;28;114346;-70
2021/10/30 10:07:07;;;;;;;3.72;2.63;;;;;;;16.65;62.48;100057.19;5027385;28;113976;-69
2021/10/30 10:09:36;;;;;;;4.60;3.08;;;;;;;16.67;62.39;100055.22;5024073;28;124150;-69
2021/10/30 10:12:04;;;;;;;6.50;3.13;;;;;;;16.70;62.58;100055.00;5024566;28;124144;-69
2021/10/30 10:14:35;;;;;;;3.92;2.60;;;;;;;16.70;62.47;100050.47;5024422;28;114228;-69
2021/10/30 10:17:02;;;;;;;4.53;2.90;;;;;;;16.72;62.47;100053.03;5025153;28;113929;-68
2021/10/30 10:19:29;;;;;;;4.15;2.65;;;;;;;16.74;62.53;100048.41;5011541;28;124103;-69
2021/10/30 10:21:58;;;;;;;5.03;2.85;;;;;;;16.74;62.55;100045.72;5026134;28;124498;-69
2021/10/30 10:24:29;;;;;;;5.63;2.72;;;;;;;16.77;62.73;100042.81;5015405;28;114462;-69
2021/10/30 10:26:58;;;;;;;4.18;2.80;;;;;;;16.79;62.61;100048.88;5023298;28;114498;-70
2021/10/30 10:29:43;;;;;;;5.45;2.80;;;;;;;16.80;62.72;100039.88;5030365;27;123859;-69
2021/10/30 10:32:21;;;;;;;5.15;3.10;;;;;;;16.82;62.45;100032.63;5018251;27;123526;-69
2021/10/30 10:34:49;;;;;;;5.35;2.90;;;;;;;16.83;62.42;100028.94;5022609;28;115091;-69
2021/10/30 10:37:22;;;;;;;4.38;2.88;;;;;;;16.83;62.71;100028.94;5028361;28;113878;-70
2021/10/30 10:39:57;;;;;;;5.63;2.90;;;;;;;16.83;62.54;100034.28;5028367;28;124514;-69
2021/10/30 10:42:33;;;;;;;5.80;3.15;;;;;;;16.86;62.78;100023.34;5033473;28;124673;-69
2021/10/30 10:45:15;;;;;;;7.60;2.80;;;;;;;16.86;62.51;100026.03;5032789;28;114546;-69
2021/10/30 10:47:44;;;;;;;4.70;2.78;;;;;;;16.87;62.55;100014.31;5021297;28;113717;-69
2021/10/30 10:50:27;;;;;;;4.68;2.83;;;;;;;16.87;62.75;100019.69;5028696;28;124356;-69
2021/10/30 10:53:05;;;;;;;3.67;2.83;;;;;;;16.88;62.68;100021.38;5033257;28;123720;-69
2021/10/30 10:55:57;;;;;;;6.13;2.90;;;;;;;16.89;62.56;100023.06;5033626;27;113458;-69
2021/10/30 10:58:24;;;;;;;4.20;2.30;;;;;;;16.90;62.57;100024.78;5019518;28;114111;-69
2021/10/30 11:01:09;;;;;;;4.40;2.45;;;;;;;16.91;62.68;100017.59;5030405;28;123848;-69
2021/10/30 11:03:41;;;;;;;6.13;2.47;;;;;;;16.92;62.59;100017.47;5032956;28;122841;-69
2021/10/30 11:06:08;;;;;;;3.90;2.40;;;;;;;16.95;62.74;100012.84;5020931;28;115335;-70
2021/10/30 11:08:36;;;;;;;4.85;3.00;;;;;;;16.97;62.74;100008.19;5000516;28;114064;-70
2021/10/30 11:11:12;;;;;;;5.78;2.70;;;;;;;16.99;62.87;100011.59;5022628;28;124348;-70
2021/10/30 11:14:02;;;;;;;4.20;2.45;;;;;;;17.00;62.85;99997.25;5023114;28;124395;-69
2021/10/30 11:16:38;;;;;;;4.72;2.70;;;;;;;17.01;62.89;99993.56;5031569;27;113251;-69
2021/10/30 11:19:38;;;;;;;4.00;2.78;;;;;;;17.02;62.85;99984.59;5014664;27;114177;-69
2021/10/30 11:22:11;;;;;;;5.45;2.67;;;;;;;17.06;63.02;99991.38;5022191;27;123828;-69
2021/10/30 11:24:50;;;;;;;7.13;3.17;;;;;;;17.10;62.98;99992.78;5023220;28;123766;-69
2021/10/30 11:27:18;;;;;;;5.22;2.78;;;;;;;17.16;63.12;99988.72;5021369;28;114528;-69